CheckWX is a tool to help pilots better visualize weather data.  It is not intended as a substitute for an official pre-flight weather briefing.

01:50:01 UTC

KADF METAR
Dexter B Florence Memorial Field Airport
Arkadelphia, Arkansas, USA
Current

54 mins ago

KADF 200056Z AUTO 18004KT FEW041 31/27 A2996 RMK AO2 SLP145 T03060267 PWINO $
Observed
Jul-20 @ 00:56 UTC
Wind
  • 180° at 4 KTS
Visibility
Cloud Levels
  • Few at 4,100' AGL
Temperature
31°C / 88°F
Dewpoint
27°C / 81°F
Heat Index
41°C / 106°F
Humidity
79%
Altimeter
29.96" Hg
Pressure
1014.52 hPa
Previous

2 hours ago

KADF 192356Z AUTO 18005KT FEW040 32/26 A2996 RMK AO2 SLP144 T03220261 10333 20317 56007 PWINO $
Observed
Jul-19 @ 23:56 UTC
Wind
  • 180° at 5 KTS
Visibility
Cloud Levels
  • Few at 4,000' AGL
Temperature
32°C / 90°F
Dewpoint
26°C / 79°F
Heat Index
42°C / 107°F
Humidity
71%
Altimeter
29.96" Hg
Pressure
1014.52 hPa
Previous

3 hours ago

KADF 192256Z AUTO 18007KT CLR 32/26 A2996 RMK AO2 SLP145 T03220256 PWINO $
Observed
Jul-19 @ 22:56 UTC
Wind
  • 180° at 7 KTS
Visibility
Cloud Levels
  • Clear skies
Temperature
32°C / 90°F
Dewpoint
26°C / 79°F
Heat Index
42°C / 107°F
Humidity
71%
Altimeter
29.96" Hg
Pressure
1014.52 hPa